sensor_id;sensor_type;location;lat;lon;timestamp;P1;durP1;ratioP1;P2;durP2;ratioP2
60344;SDS011;46188;52.324;8.032;2023-02-18T00:01:17;10.48;;;4.13;;
60344;SDS011;46188;52.324;8.032;2023-02-18T00:03:43;9.73;;;2.47;;
60344;SDS011;46188;52.324;8.032;2023-02-18T00:06:17;9.02;;;2.38;;
60344;SDS011;46188;52.324;8.032;2023-02-18T00:08:45;9.80;;;2.75;;
60344;SDS011;46188;52.324;8.032;2023-02-18T00:11:12;11.82;;;2.97;;
60344;SDS011;46188;52.324;8.032;2023-02-18T00:13:38;9.68;;;2.65;;
60344;SDS011;46188;52.324;8.032;2023-02-18T00:16:05;11.25;;;2.75;;
60344;SDS011;46188;52.324;8.032;2023-02-18T00:18:32;15.18;;;3.22;;
60344;SDS011;46188;52.324;8.032;2023-02-18T00:20:58;15.40;;;4.18;;
60344;SDS011;46188;52.324;8.032;2023-02-18T00:23:24;11.65;;;3.00;;
60344;SDS011;46188;52.324;8.032;2023-02-18T00:25:49;13.63;;;3.45;;
60344;SDS011;46188;52.324;8.032;2023-02-18T00:28:23;9.70;;;3.47;;
60344;SDS011;46188;52.324;8.032;2023-02-18T00:30:49;10.52;;;3.45;;
60344;SDS011;46188;52.324;8.032;2023-02-18T00:33:14;10.48;;;3.63;;
60344;SDS011;46188;52.324;8.032;2023-02-18T00:35:39;14.18;;;3.72;;
60344;SDS011;46188;52.324;8.032;2023-02-18T00:38:05;12.52;;;4.20;;
60344;SDS011;46188;52.324;8.032;2023-02-18T00:40:30;11.70;;;4.22;;
60344;SDS011;46188;52.324;8.032;2023-02-18T00:42:56;9.23;;;3.60;;
60344;SDS011;46188;52.324;8.032;2023-02-18T00:45:21;11.25;;;4.28;;
60344;SDS011;46188;52.324;8.032;2023-02-18T00:47:46;13.80;;;4.57;;
60344;SDS011;46188;52.324;8.032;2023-02-18T00:50:12;10.95;;;4.35;;
60344;SDS011;46188;52.324;8.032;2023-02-18T00:52:37;19.60;;;6.25;;
60344;SDS011;46188;52.324;8.032;2023-02-18T00:55:03;11.68;;;5.85;;
60344;SDS011;46188;52.324;8.032;2023-02-18T00:57:29;16.08;;;6.43;;
60344;SDS011;46188;52.324;8.032;2023-02-18T00:59:54;12.23;;;5.65;;
60344;SDS011;46188;52.324;8.032;2023-02-18T01:02:19;14.90;;;7.07;;
60344;SDS011;46188;52.324;8.032;2023-02-18T01:04:45;21.77;;;7.90;;
60344;SDS011;46188;52.324;8.032;2023-02-18T01:07:10;17.15;;;8.60;;
60344;SDS011;46188;52.324;8.032;2023-02-18T01:09:36;18.17;;;9.15;;
60344;SDS011;46188;52.324;8.032;2023-02-18T01:12:02;22.85;;;10.10;;
60344;SDS011;46188;52.324;8.032;2023-02-18T01:14:27;20.63;;;11.00;;
60344;SDS011;46188;52.324;8.032;2023-02-18T01:16:53;26.52;;;12.80;;
60344;SDS011;46188;52.324;8.032;2023-02-18T01:19:18;26.60;;;13.85;;
60344;SDS011;46188;52.324;8.032;2023-02-18T01:21:43;22.27;;;11.73;;
60344;SDS011;46188;52.324;8.032;2023-02-18T01:24:09;28.35;;;13.70;;
60344;SDS011;46188;52.324;8.032;2023-02-18T01:26:34;29.67;;;14.02;;
60344;SDS011;46188;52.324;8.032;2023-02-18T01:29:00;24.50;;;14.18;;
60344;SDS011;46188;52.324;8.032;2023-02-18T01:31:25;29.00;;;13.10;;
60344;SDS011;46188;52.324;8.032;2023-02-18T01:33:51;27.67;;;14.00;;
60344;SDS011;46188;52.324;8.032;2023-02-18T01:36:16;27.17;;;13.85;;
60344;SDS011;46188;52.324;8.032;2023-02-18T01:38:42;27.88;;;14.52;;
60344;SDS011;46188;52.324;8.032;2023-02-18T01:41:08;25.70;;;15.60;;
60344;SDS011;46188;52.324;8.032;2023-02-18T01:43:34;27.75;;;15.02;;
60344;SDS011;46188;52.324;8.032;2023-02-18T01:51:12;32.17;;;16.05;;
60344;SDS011;46188;52.324;8.032;2023-02-18T01:53:48;31.23;;;17.50;;
60344;SDS011;46188;52.324;8.032;2023-02-18T01:56:26;38.42;;;17.95;;
60344;SDS011;46188;52.324;8.032;2023-02-18T01:58:59;29.00;;;15.70;;
60344;SDS011;46188;52.324;8.032;2023-02-18T02:01:27;33.95;;;17.05;;
60344;SDS011;46188;52.324;8.032;2023-02-18T02:03:53;36.08;;;17.10;;
60344;SDS011;46188;52.324;8.032;2023-02-18T02:06:20;34.20;;;18.40;;
60344;SDS011;46188;52.324;8.032;2023-02-18T02:08:47;34.85;;;17.83;;
60344;SDS011;46188;52.324;8.032;2023-02-18T02:11:22;32.72;;;17.25;;
60344;SDS011;46188;52.324;8.032;2023-02-18T02:39:18;32.80;;;20.23;;
60344;SDS011;46188;52.324;8.032;2023-02-18T02:41:51;43.22;;;21.33;;
60344;SDS011;46188;52.324;8.032;2023-02-18T02:46:47;39.72;;;19.67;;
60344;SDS011;46188;52.324;8.032;2023-02-18T02:49:35;41.33;;;20.00;;
60344;SDS011;46188;52.324;8.032;2023-02-18T02:52:12;33.50;;;19.38;;
60344;SDS011;46188;52.324;8.032;2023-02-18T02:54:38;35.60;;;19.85;;
60344;SDS011;46188;52.324;8.032;2023-02-18T02:59:42;39.03;;;20.48;;
60344;SDS011;46188;52.324;8.032;2023-02-18T03:10:35;37.70;;;20.95;;
60344;SDS011;46188;52.324;8.032;2023-02-18T03:13:32;37.80;;;19.75;;
60344;SDS011;46188;52.324;8.032;2023-02-18T03:22:07;40.92;;;20.83;;
60344;SDS011;46188;52.324;8.032;2023-02-18T03:24:40;44.17;;;21.38;;
60344;SDS011;46188;52.324;8.032;2023-02-18T03:27:13;40.20;;;20.70;;
60344;SDS011;46188;52.324;8.032;2023-02-18T03:29:42;38.63;;;20.10;;
60344;SDS011;46188;52.324;8.032;2023-02-18T03:32:11;37.38;;;20.05;;
60344;SDS011;46188;52.324;8.032;2023-02-18T03:34:41;36.95;;;19.77;;
60344;SDS011;46188;52.324;8.032;2023-02-18T03:37:12;44.40;;;20.50;;
60344;SDS011;46188;52.324;8.032;2023-02-18T03:39:40;42.95;;;20.25;;
60344;SDS011;46188;52.324;8.032;2023-02-18T03:42:08;42.13;;;21.40;;
60344;SDS011;46188;52.324;8.032;2023-02-18T03:44:34;42.58;;;20.55;;
60344;SDS011;46188;52.324;8.032;2023-02-18T03:47:00;50.72;;;20.88;;
60344;SDS011;46188;52.324;8.032;2023-02-18T03:49:26;46.10;;;21.92;;
60344;SDS011;46188;52.324;8.032;2023-02-18T03:51:51;46.78;;;21.45;;
60344;SDS011;46188;52.324;8.032;2023-02-18T03:54:17;46.25;;;22.20;;
60344;SDS011;46188;52.324;8.032;2023-02-18T03:56:43;44.92;;;20.88;;
60344;SDS011;46188;52.324;8.032;2023-02-18T03:59:09;39.10;;;19.92;;
60344;SDS011;46188;52.324;8.032;2023-02-18T04:01:35;49.17;;;22.73;;
60344;SDS011;46188;52.324;8.032;2023-02-18T04:04:01;39.65;;;20.75;;
60344;SDS011;46188;52.324;8.032;2023-02-18T04:06:27;40.10;;;20.70;;
60344;SDS011;46188;52.324;8.032;2023-02-18T04:08:52;41.67;;;22.05;;
60344;SDS011;46188;52.324;8.032;2023-02-18T04:11:18;47.45;;;20.35;;
60344;SDS011;46188;52.324;8.032;2023-02-18T04:13:43;45.63;;;21.67;;
60344;SDS011;46188;52.324;8.032;2023-02-18T04:16:09;49.55;;;20.75;;
60344;SDS011;46188;52.324;8.032;2023-02-18T04:18:34;42.05;;;19.67;;
60344;SDS011;46188;52.324;8.032;2023-02-18T04:20:59;37.97;;;20.33;;
60344;SDS011;46188;52.324;8.032;2023-02-18T04:23:25;52.15;;;21.77;;
60344;SDS011;46188;52.324;8.032;2023-02-18T04:25:50;44.92;;;21.08;;
60344;SDS011;46188;52.324;8.032;2023-02-18T04:28:16;43.22;;;19.98;;
60344;SDS011;46188;52.324;8.032;2023-02-18T04:30:45;45.28;;;19.90;;
60344;SDS011;46188;52.324;8.032;2023-02-18T04:33:11;46.22;;;19.45;;
60344;SDS011;46188;52.324;8.032;2023-02-18T04:35:36;42.03;;;18.88;;
60344;SDS011;46188;52.324;8.032;2023-02-18T04:38:04;44.30;;;20.05;;
60344;SDS011;46188;52.324;8.032;2023-02-18T04:40:30;46.45;;;20.77;;
60344;SDS011;46188;52.324;8.032;2023-02-18T04:42:58;46.67;;;19.08;;
60344;SDS011;46188;52.324;8.032;2023-02-18T04:45:25;44.08;;;19.38;;
60344;SDS011;46188;52.324;8.032;2023-02-18T04:47:51;43.05;;;19.92;;
60344;SDS011;46188;52.324;8.032;2023-02-18T04:50:17;40.20;;;18.75;;
60344;SDS011;46188;52.324;8.032;2023-02-18T04:52:43;43.78;;;20.45;;
60344;SDS011;46188;52.324;8.032;2023-02-18T04:55:08;41.85;;;18.30;;
60344;SDS011;46188;52.324;8.032;2023-02-18T04:57:34;48.80;;;22.08;;
60344;SDS011;46188;52.324;8.032;2023-02-18T04:59:59;44.22;;;18.48;;
60344;SDS011;46188;52.324;8.032;2023-02-18T05:02:24;40.20;;;17.90;;
60344;SDS011;46188;52.324;8.032;2023-02-18T05:04:50;44.47;;;18.48;;
60344;SDS011;46188;52.324;8.032;2023-02-18T05:07:15;43.40;;;19.90;;
60344;SDS011;46188;52.324;8.032;2023-02-18T05:09:41;42.70;;;16.65;;
60344;SDS011;46188;52.324;8.032;2023-02-18T05:12:07;45.80;;;18.90;;
60344;SDS011;46188;52.324;8.032;2023-02-18T05:14:32;38.35;;;18.17;;
60344;SDS011;46188;52.324;8.032;2023-02-18T05:16:57;35.10;;;15.73;;
60344;SDS011;46188;52.324;8.032;2023-02-18T05:19:23;34.92;;;15.20;;
60344;SDS011;46188;52.324;8.032;2023-02-18T05:21:48;35.53;;;14.73;;
60344;SDS011;46188;52.324;8.032;2023-02-18T05:24:14;34.25;;;13.43;;
60344;SDS011;46188;52.324;8.032;2023-02-18T05:26:39;29.10;;;12.90;;
60344;SDS011;46188;52.324;8.032;2023-02-18T05:29:05;31.80;;;14.00;;
60344;SDS011;46188;52.324;8.032;2023-02-18T05:31:30;27.17;;;12.18;;
60344;SDS011;46188;52.324;8.032;2023-02-18T05:33:56;27.27;;;11.55;;
60344;SDS011;46188;52.324;8.032;2023-02-18T05:36:21;28.40;;;12.20;;
60344;SDS011;46188;52.324;8.032;2023-02-18T05:38:47;24.40;;;11.38;;
60344;SDS011;46188;52.324;8.032;2023-02-18T05:41:12;23.73;;;10.10;;
60344;SDS011;46188;52.324;8.032;2023-02-18T05:43:38;17.70;;;8.48;;
60344;SDS011;46188;52.324;8.032;2023-02-18T05:46:22;18.83;;;9.45;;
60344;SDS011;46188;52.324;8.032;2023-02-18T05:48:47;16.77;;;8.43;;
60344;SDS011;46188;52.324;8.032;2023-02-18T05:51:13;16.70;;;8.07;;
60344;SDS011;46188;52.324;8.032;2023-02-18T05:53:38;13.55;;;7.15;;
60344;SDS011;46188;52.324;8.032;2023-02-18T05:56:04;14.57;;;6.20;;
60344;SDS011;46188;52.324;8.032;2023-02-18T05:58:29;10.77;;;6.20;;
60344;SDS011;46188;52.324;8.032;2023-02-18T06:00:55;12.80;;;6.00;;
60344;SDS011;46188;52.324;8.032;2023-02-18T06:03:20;11.40;;;5.70;;
60344;SDS011;46188;52.324;8.032;2023-02-18T06:05:49;10.90;;;5.53;;
60344;SDS011;46188;52.324;8.032;2023-02-18T06:08:15;9.57;;;5.53;;
60344;SDS011;46188;52.324;8.032;2023-02-18T06:10:40;9.38;;;4.78;;
60344;SDS011;46188;52.324;8.032;2023-02-18T06:13:05;10.38;;;6.00;;
60344;SDS011;46188;52.324;8.032;2023-02-18T06:15:31;8.82;;;4.90;;
60344;SDS011;46188;52.324;8.032;2023-02-18T06:17:56;8.15;;;4.95;;
60344;SDS011;46188;52.324;8.032;2023-02-18T06:20:22;8.38;;;4.68;;
60344;SDS011;46188;52.324;8.032;2023-02-18T06:22:47;8.10;;;4.47;;
60344;SDS011;46188;52.324;8.032;2023-02-18T06:25:12;9.25;;;4.55;;
60344;SDS011;46188;52.324;8.032;2023-02-18T06:27:38;8.90;;;4.70;;
60344;SDS011;46188;52.324;8.032;2023-02-18T06:30:03;8.45;;;4.13;;
60344;SDS011;46188;52.324;8.032;2023-02-18T06:32:29;6.88;;;3.92;;
60344;SDS011;46188;52.324;8.032;2023-02-18T06:34:55;7.05;;;3.50;;
60344;SDS011;46188;52.324;8.032;2023-02-18T06:37:20;6.25;;;3.72;;
60344;SDS011;46188;52.324;8.032;2023-02-18T06:39:45;8.02;;;3.72;;
60344;SDS011;46188;52.324;8.032;2023-02-18T06:42:11;6.57;;;3.42;;
60344;SDS011;46188;52.324;8.032;2023-02-18T06:44:36;5.40;;;3.53;;
60344;SDS011;46188;52.324;8.032;2023-02-18T06:47:01;6.43;;;3.17;;
60344;SDS011;46188;52.324;8.032;2023-02-18T06:49:27;7.55;;;3.55;;
60344;SDS011;46188;52.324;8.032;2023-02-18T06:51:52;6.97;;;3.22;;
60344;SDS011;46188;52.324;8.032;2023-02-18T06:54:18;7.43;;;3.90;;
60344;SDS011;46188;52.324;8.032;2023-02-18T06:56:43;6.82;;;3.75;;
60344;SDS011;46188;52.324;8.032;2023-02-18T06:59:09;5.80;;;2.97;;
60344;SDS011;46188;52.324;8.032;2023-02-18T07:01:35;6.05;;;2.97;;
60344;SDS011;46188;52.324;8.032;2023-02-18T07:04:01;4.40;;;2.60;;
60344;SDS011;46188;52.324;8.032;2023-02-18T07:06:26;4.95;;;2.45;;
60344;SDS011;46188;52.324;8.032;2023-02-18T07:08:51;5.07;;;2.33;;
60344;SDS011;46188;52.324;8.032;2023-02-18T07:11:17;4.53;;;2.47;;
60344;SDS011;46188;52.324;8.032;2023-02-18T07:13:42;5.20;;;3.00;;
60344;SDS011;46188;52.324;8.032;2023-02-18T07:16:08;4.13;;;2.60;;
60344;SDS011;46188;52.324;8.032;2023-02-18T07:18:33;4.47;;;2.30;;
60344;SDS011;46188;52.324;8.032;2023-02-18T07:20:58;3.78;;;2.10;;
60344;SDS011;46188;52.324;8.032;2023-02-18T07:23:24;5.22;;;2.55;;
60344;SDS011;46188;52.324;8.032;2023-02-18T07:25:49;4.95;;;2.40;;
60344;SDS011;46188;52.324;8.032;2023-02-18T07:28:15;4.18;;;2.35;;
60344;SDS011;46188;52.324;8.032;2023-02-18T07:30:40;4.63;;;2.33;;
60344;SDS011;46188;52.324;8.032;2023-02-18T07:33:06;4.38;;;2.80;;
60344;SDS011;46188;52.324;8.032;2023-02-18T07:35:31;4.93;;;2.40;;
60344;SDS011;46188;52.324;8.032;2023-02-18T07:37:56;3.97;;;2.13;;
60344;SDS011;46188;52.324;8.032;2023-02-18T07:40:22;3.78;;;1.88;;
60344;SDS011;46188;52.324;8.032;2023-02-18T07:42:47;4.38;;;2.20;;
60344;SDS011;46188;52.324;8.032;2023-02-18T07:45:13;2.88;;;1.85;;
60344;SDS011;46188;52.324;8.032;2023-02-18T07:47:39;4.60;;;2.00;;
60344;SDS011;46188;52.324;8.032;2023-02-18T07:50:06;3.53;;;1.80;;
60344;SDS011;46188;52.324;8.032;2023-02-18T07:52:33;4.43;;;2.20;;
60344;SDS011;46188;52.324;8.032;2023-02-18T07:54:58;3.20;;;1.90;;
60344;SDS011;46188;52.324;8.032;2023-02-18T07:57:24;4.60;;;1.75;;
60344;SDS011;46188;52.324;8.032;2023-02-18T07:59:49;2.85;;;1.80;;
60344;SDS011;46188;52.324;8.032;2023-02-18T08:02:21;3.63;;;1.70;;
60344;SDS011;46188;52.324;8.032;2023-02-18T08:04:47;5.53;;;2.22;;
60344;SDS011;46188;52.324;8.032;2023-02-18T08:07:13;2.70;;;1.60;;
60344;SDS011;46188;52.324;8.032;2023-02-18T08:09:40;3.60;;;1.90;;
60344;SDS011;46188;52.324;8.032;2023-02-18T08:12:06;4.55;;;1.80;;
60344;SDS011;46188;52.324;8.032;2023-02-18T08:14:32;4.63;;;1.80;;
60344;SDS011;46188;52.324;8.032;2023-02-18T08:16:57;3.13;;;1.40;;
60344;SDS011;46188;52.324;8.032;2023-02-18T08:19:23;3.35;;;1.40;;
60344;SDS011;46188;52.324;8.032;2023-02-18T08:21:48;3.47;;;1.70;;
60344;SDS011;46188;52.324;8.032;2023-02-18T08:24:14;2.22;;;1.45;;
60344;SDS011;46188;52.324;8.032;2023-02-18T08:26:39;2.35;;;1.30;;
60344;SDS011;46188;52.324;8.032;2023-02-18T08:29:05;2.38;;;1.25;;
60344;SDS011;46188;52.324;8.032;2023-02-18T08:31:30;2.65;;;1.33;;
60344;SDS011;46188;52.324;8.032;2023-02-18T08:33:56;2.95;;;1.77;;
60344;SDS011;46188;52.324;8.032;2023-02-18T08:36:23;2.33;;;1.40;;
60344;SDS011;46188;52.324;8.032;2023-02-18T08:38:49;3.50;;;1.58;;
60344;SDS011;46188;52.324;8.032;2023-02-18T08:41:15;2.90;;;1.70;;
60344;SDS011;46188;52.324;8.032;2023-02-18T08:43:42;2.80;;;1.88;;
60344;SDS011;46188;52.324;8.032;2023-02-18T08:46:09;3.03;;;1.85;;
60344;SDS011;46188;52.324;8.032;2023-02-18T08:48:35;2.55;;;1.75;;
60344;SDS011;46188;52.324;8.032;2023-02-18T08:51:09;3.45;;;2.25;;
60344;SDS011;46188;52.324;8.032;2023-02-18T08:53:38;4.22;;;2.70;;
60344;SDS011;46188;52.324;8.032;2023-02-18T08:56:05;5.70;;;3.10;;
60344;SDS011;46188;52.324;8.032;2023-02-18T08:58:32;4.50;;;3.38;;
60344;SDS011;46188;52.324;8.032;2023-02-18T09:01:01;5.28;;;3.08;;
60344;SDS011;46188;52.324;8.032;2023-02-18T09:03:27;4.05;;;2.88;;
60344;SDS011;46188;52.324;8.032;2023-02-18T09:05:52;4.78;;;2.50;;
60344;SDS011;46188;52.324;8.032;2023-02-18T09:08:18;4.38;;;2.50;;
60344;SDS011;46188;52.324;8.032;2023-02-18T09:10:43;4.07;;;2.30;;
60344;SDS011;46188;52.324;8.032;2023-02-18T09:13:09;3.80;;;2.20;;
60344;SDS011;46188;52.324;8.032;2023-02-18T09:15:34;3.50;;;2.10;;
60344;SDS011;46188;52.324;8.032;2023-02-18T09:18:00;3.92;;;1.90;;
60344;SDS011;46188;52.324;8.032;2023-02-18T09:20:25;3.58;;;1.77;;
60344;SDS011;46188;52.324;8.032;2023-02-18T09:22:51;3.40;;;1.80;;
60344;SDS011;46188;52.324;8.032;2023-02-18T09:25:17;2.85;;;1.50;;
60344;SDS011;46188;52.324;8.032;2023-02-18T09:27:42;3.75;;;1.60;;
60344;SDS011;46188;52.324;8.032;2023-02-18T09:30:08;3.10;;;1.73;;
60344;SDS011;46188;52.324;8.032;2023-02-18T09:32:34;2.70;;;1.77;;
60344;SDS011;46188;52.324;8.032;2023-02-18T09:35:00;3.03;;;1.88;;
60344;SDS011;46188;52.324;8.032;2023-02-18T09:37:26;2.65;;;1.73;;
60344;SDS011;46188;52.324;8.032;2023-02-18T09:39:52;3.50;;;2.30;;
60344;SDS011;46188;52.324;8.032;2023-02-18T09:42:18;4.22;;;2.72;;
60344;SDS011;46188;52.324;8.032;2023-02-18T09:44:50;3.45;;;2.20;;
60344;SDS011;46188;52.324;8.032;2023-02-18T09:47:29;3.22;;;2.15;;
60344;SDS011;46188;52.324;8.032;2023-02-18T09:50:12;3.20;;;2.03;;
60344;SDS011;46188;52.324;8.032;2023-02-18T09:52:44;4.15;;;2.60;;
60344;SDS011;46188;52.324;8.032;2023-02-18T09:55:21;6.40;;;2.33;;
60344;SDS011;46188;52.324;8.032;2023-02-18T09:58:04;3.50;;;2.10;;
60344;SDS011;46188;52.324;8.032;2023-02-18T10:00:37;5.53;;;2.55;;
60344;SDS011;46188;52.324;8.032;2023-02-18T10:03:06;4.00;;;2.40;;
60344;SDS011;46188;52.324;8.032;2023-02-18T10:05:37;4.10;;;2.33;;
60344;SDS011;46188;52.324;8.032;2023-02-18T10:08:09;4.70;;;2.80;;
60344;SDS011;46188;52.324;8.032;2023-02-18T10:10:44;5.70;;;3.55;;
60344;SDS011;46188;52.324;8.032;2023-02-18T10:13:18;5.97;;;3.35;;
60344;SDS011;46188;52.324;8.032;2023-02-18T10:15:46;6.35;;;3.22;;
60344;SDS011;46188;52.324;8.032;2023-02-18T10:18:35;6.68;;;3.30;;
60344;SDS011;46188;52.324;8.032;2023-02-18T10:21:14;6.45;;;4.03;;
60344;SDS011;46188;52.324;8.032;2023-02-18T10:26:16;8.40;;;4.80;;
60344;SDS011;46188;52.324;8.032;2023-02-18T10:28:42;8.68;;;4.00;;
60344;SDS011;46188;52.324;8.032;2023-02-18T10:31:09;6.28;;;4.07;;
60344;SDS011;46188;52.324;8.032;2023-02-18T10:33:41;10.35;;;4.90;;
60344;SDS011;46188;52.324;8.032;2023-02-18T10:36:22;8.07;;;4.75;;
60344;SDS011;46188;52.324;8.032;2023-02-18T10:39:15;7.70;;;4.07;;
60344;SDS011;46188;52.324;8.032;2023-02-18T10:50:41;6.55;;;3.80;;
60344;SDS011;46188;52.324;8.032;2023-02-18T10:55:48;7.78;;;3.97;;
60344;SDS011;46188;52.324;8.032;2023-02-18T10:58:24;9.90;;;3.75;;
60344;SDS011;46188;52.324;8.032;2023-02-18T11:01:05;9.00;;;3.97;;
60344;SDS011;46188;52.324;8.032;2023-02-18T11:08:56;3.50;;;2.20;;
60344;SDS011;46188;52.324;8.032;2023-02-18T11:11:24;3.92;;;2.22;;
60344;SDS011;46188;52.324;8.032;2023-02-18T11:13:53;4.13;;;2.58;;
60344;SDS011;46188;52.324;8.032;2023-02-18T11:16:23;5.47;;;2.40;;
60344;SDS011;46188;52.324;8.032;2023-02-18T11:19:01;5.07;;;2.63;;
60344;SDS011;46188;52.324;8.032;2023-02-18T11:21:35;5.03;;;2.67;;
60344;SDS011;46188;52.324;8.032;2023-02-18T11:24:09;3.97;;;2.58;;
60344;SDS011;46188;52.324;8.032;2023-02-18T11:26:39;4.93;;;3.05;;
60344;SDS011;46188;52.324;8.032;2023-02-18T11:31:43;3.38;;;2.20;;
60344;SDS011;46188;52.324;8.032;2023-02-18T11:34:13;6.57;;;3.03;;
60344;SDS011;46188;52.324;8.032;2023-02-18T11:36:43;5.75;;;2.50;;
60344;SDS011;46188;52.324;8.032;2023-02-18T11:39:16;6.40;;;2.65;;
60344;SDS011;46188;52.324;8.032;2023-02-18T11:41:57;5.68;;;2.47;;
60344;SDS011;46188;52.324;8.032;2023-02-18T11:44:27;6.28;;;2.50;;
60344;SDS011;46188;52.324;8.032;2023-02-18T11:49:21;2.85;;;1.77;;
60344;SDS011;46188;52.324;8.032;2023-02-18T11:51:48;4.07;;;2.22;;
60344;SDS011;46188;52.324;8.032;2023-02-18T11:54:21;3.35;;;1.88;;
60344;SDS011;46188;52.324;8.032;2023-02-18T11:56:59;3.67;;;2.00;;
60344;SDS011;46188;52.324;8.032;2023-02-18T11:59:29;4.85;;;2.20;;
60344;SDS011;46188;52.324;8.032;2023-02-18T12:04:40;4.38;;;2.20;;
60344;SDS011;46188;52.324;8.032;2023-02-18T12:07:18;3.22;;;2.40;;
60344;SDS011;46188;52.324;8.032;2023-02-18T12:09:49;4.07;;;2.17;;
60344;SDS011;46188;52.324;8.032;2023-02-18T12:12:43;4.90;;;2.33;;
60344;SDS011;46188;52.324;8.032;2023-02-18T12:15:47;3.95;;;2.53;;
60344;SDS011;46188;52.324;8.032;2023-02-18T12:29:56;5.57;;;3.40;;
60344;SDS011;46188;52.324;8.032;2023-02-18T12:32:43;8.07;;;3.47;;
60344;SDS011;46188;52.324;8.032;2023-02-18T13:02:45;8.95;;;4.53;;
60344;SDS011;46188;52.324;8.032;2023-02-18T13:13:59;8.98;;;5.07;;
60344;SDS011;46188;52.324;8.032;2023-02-18T13:16:46;14.27;;;5.28;;
60344;SDS011;46188;52.324;8.032;2023-02-18T13:19:22;8.95;;;5.10;;
60344;SDS011;46188;52.324;8.032;2023-02-18T13:21:55;8.48;;;4.88;;
60344;SDS011;46188;52.324;8.032;2023-02-18T13:24:27;11.50;;;5.15;;
60344;SDS011;46188;52.324;8.032;2023-02-18T13:27:00;10.88;;;4.90;;
60344;SDS011;46188;52.324;8.032;2023-02-18T13:32:43;12.73;;;4.72;;
60344;SDS011;46188;52.324;8.032;2023-02-18T13:40:30;7.88;;;4.82;;
60344;SDS011;46188;52.324;8.032;2023-02-18T13:53:53;10.90;;;5.45;;
60344;SDS011;46188;52.324;8.032;2023-02-18T13:56:28;16.38;;;5.43;;
60344;SDS011;46188;52.324;8.032;2023-02-18T13:59:01;11.45;;;4.88;;
60344;SDS011;46188;52.324;8.032;2023-02-18T14:01:43;14.38;;;4.95;;
60344;SDS011;46188;52.324;8.032;2023-02-18T14:04:32;12.93;;;5.88;;
60344;SDS011;46188;52.324;8.032;2023-02-18T14:09:43;15.85;;;5.90;;
60344;SDS011;46188;52.324;8.032;2023-02-18T14:12:26;10.00;;;4.53;;
60344;SDS011;46188;52.324;8.032;2023-02-18T14:14:59;17.55;;;4.70;;
60344;SDS011;46188;52.324;8.032;2023-02-18T14:17:29;13.60;;;5.07;;
60344;SDS011;46188;52.324;8.032;2023-02-18T14:22:30;22.13;;;5.28;;
60344;SDS011;46188;52.324;8.032;2023-02-18T14:27:32;13.98;;;5.05;;
60344;SDS011;46188;52.324;8.032;2023-02-18T14:30:02;10.93;;;5.57;;
60344;SDS011;46188;52.324;8.032;2023-02-18T14:32:31;14.25;;;4.88;;
60344;SDS011;46188;52.324;8.032;2023-02-18T14:46:04;5.93;;;4.30;;
60344;SDS011;46188;52.324;8.032;2023-02-18T14:51:40;10.50;;;4.80;;
60344;SDS011;46188;52.324;8.032;2023-02-18T14:54:16;12.60;;;4.40;;
60344;SDS011;46188;52.324;8.032;2023-02-18T14:57:17;11.35;;;3.75;;
60344;SDS011;46188;52.324;8.032;2023-02-18T14:59:44;10.25;;;4.50;;
60344;SDS011;46188;52.324;8.032;2023-02-18T15:02:18;12.93;;;5.10;;
60344;SDS011;46188;52.324;8.032;2023-02-18T15:04:46;12.88;;;5.03;;
60344;SDS011;46188;52.324;8.032;2023-02-18T15:07:16;10.48;;;4.55;;
60344;SDS011;46188;52.324;8.032;2023-02-18T15:09:44;11.63;;;5.22;;
60344;SDS011;46188;52.324;8.032;2023-02-18T15:12:11;10.63;;;4.13;;
60344;SDS011;46188;52.324;8.032;2023-02-18T15:14:41;8.82;;;4.25;;
60344;SDS011;46188;52.324;8.032;2023-02-18T15:17:16;10.30;;;4.50;;
60344;SDS011;46188;52.324;8.032;2023-02-18T15:19:51;8.55;;;4.57;;
60344;SDS011;46188;52.324;8.032;2023-02-18T15:22:20;8.07;;;4.05;;
60344;SDS011;46188;52.324;8.032;2023-02-18T15:24:49;12.23;;;4.63;;
60344;SDS011;46188;52.324;8.032;2023-02-18T15:27:18;13.38;;;4.15;;
60344;SDS011;46188;52.324;8.032;2023-02-18T15:29:49;9.50;;;4.70;;
60344;SDS011;46188;52.324;8.032;2023-02-18T15:32:17;12.77;;;4.57;;
60344;SDS011;46188;52.324;8.032;2023-02-18T15:34:52;9.95;;;4.00;;
60344;SDS011;46188;52.324;8.032;2023-02-18T15:37:20;8.45;;;4.15;;
60344;SDS011;46188;52.324;8.032;2023-02-18T15:39:46;12.40;;;4.97;;
60344;SDS011;46188;52.324;8.032;2023-02-18T15:44:48;9.05;;;4.22;;
60344;SDS011;46188;52.324;8.032;2023-02-18T15:47:16;11.88;;;4.40;;
60344;SDS011;46188;52.324;8.032;2023-02-18T15:49:46;9.15;;;4.00;;
60344;SDS011;46188;52.324;8.032;2023-02-18T15:52:22;8.52;;;3.78;;
60344;SDS011;46188;52.324;8.032;2023-02-18T15:54:50;7.97;;;4.20;;
60344;SDS011;46188;52.324;8.032;2023-02-18T15:57:17;9.82;;;4.63;;
60344;SDS011;46188;52.324;8.032;2023-02-18T15:59:54;10.93;;;4.25;;
60344;SDS011;46188;52.324;8.032;2023-02-18T16:02:28;13.07;;;4.25;;
60344;SDS011;46188;52.324;8.032;2023-02-18T16:04:57;12.73;;;4.50;;
60344;SDS011;46188;52.324;8.032;2023-02-18T16:10:14;10.50;;;4.20;;
60344;SDS011;46188;52.324;8.032;2023-02-18T16:12:44;12.23;;;3.85;;
60344;SDS011;46188;52.324;8.032;2023-02-18T16:15:15;9.57;;;4.00;;
60344;SDS011;46188;52.324;8.032;2023-02-18T16:17:50;13.20;;;4.20;;
60344;SDS011;46188;52.324;8.032;2023-02-18T16:20:32;9.10;;;4.18;;
60344;SDS011;46188;52.324;8.032;2023-02-18T16:25:47;7.45;;;3.47;;
60344;SDS011;46188;52.324;8.032;2023-02-18T16:30:51;7.53;;;2.75;;
60344;SDS011;46188;52.324;8.032;2023-02-18T16:33:17;8.35;;;3.75;;
60344;SDS011;46188;52.324;8.032;2023-02-18T16:35:43;11.40;;;3.40;;
60344;SDS011;46188;52.324;8.032;2023-02-18T16:38:19;12.88;;;3.88;;
60344;SDS011;46188;52.324;8.032;2023-02-18T16:40:47;6.15;;;3.38;;
60344;SDS011;46188;52.324;8.032;2023-02-18T16:45:40;12.60;;;3.67;;
60344;SDS011;46188;52.324;8.032;2023-02-18T16:48:14;8.70;;;3.08;;
60344;SDS011;46188;52.324;8.032;2023-02-18T16:50:41;9.57;;;3.63;;
60344;SDS011;46188;52.324;8.032;2023-02-18T16:53:08;7.50;;;3.20;;
60344;SDS011;46188;52.324;8.032;2023-02-18T16:55:35;7.45;;;3.38;;
60344;SDS011;46188;52.324;8.032;2023-02-18T16:58:01;9.18;;;3.30;;
60344;SDS011;46188;52.324;8.032;2023-02-18T17:00:26;12.40;;;3.50;;
60344;SDS011;46188;52.324;8.032;2023-02-18T17:02:53;8.13;;;3.10;;
60344;SDS011;46188;52.324;8.032;2023-02-18T17:05:23;9.48;;;2.80;;
60344;SDS011;46188;52.324;8.032;2023-02-18T17:07:51;7.97;;;2.65;;
60344;SDS011;46188;52.324;8.032;2023-02-18T17:10:17;8.30;;;3.17;;
60344;SDS011;46188;52.324;8.032;2023-02-18T17:12:42;12.20;;;3.60;;
60344;SDS011;46188;52.324;8.032;2023-02-18T17:15:22;6.20;;;2.90;;
60344;SDS011;46188;52.324;8.032;2023-02-18T17:17:54;6.85;;;2.58;;
60344;SDS011;46188;52.324;8.032;2023-02-18T17:20:20;11.25;;;3.38;;
60344;SDS011;46188;52.324;8.032;2023-02-18T17:22:46;9.02;;;3.53;;
60344;SDS011;46188;52.324;8.032;2023-02-18T17:25:14;12.68;;;3.30;;
60344;SDS011;46188;52.324;8.032;2023-02-18T17:27:44;7.68;;;3.15;;
60344;SDS011;46188;52.324;8.032;2023-02-18T17:30:10;7.38;;;2.95;;
60344;SDS011;46188;52.324;8.032;2023-02-18T17:32:35;9.02;;;2.78;;
60344;SDS011;46188;52.324;8.032;2023-02-18T17:35:01;7.82;;;2.90;;
60344;SDS011;46188;52.324;8.032;2023-02-18T17:37:27;8.73;;;3.53;;
60344;SDS011;46188;52.324;8.032;2023-02-18T17:39:52;6.22;;;2.90;;
60344;SDS011;46188;52.324;8.032;2023-02-18T17:42:18;8.30;;;2.72;;
60344;SDS011;46188;52.324;8.032;2023-02-18T17:44:45;8.43;;;2.70;;
60344;SDS011;46188;52.324;8.032;2023-02-18T17:47:10;14.15;;;3.33;;